Time;durP1;ratioP1;P1;durP2;ratioP2;P2;SDS_P1;SDS_P2;PMS_P1;PMS_P2;Temp;Humidity;BMP_temperature;BMP_pressure;BME280_temperature;BME280_humidity;BME280_pressure;Samples;Min_cycle;Max_cycle;Signal;HPM_P1;HPM_P2
2024/02/13 00:02:08;;;;;;;18.87;12.73;;;5.50;99.90;;;;;;4967669;28;20305;-74
2024/02/13 00:04:35;;;;;;;22.93;13.47;;;5.50;99.90;;;;;;4967888;28;20211;-75
2024/02/13 00:07:02;;;;;;;19.03;13.43;;;5.50;99.90;;;;;;4967441;28;20207;-75
2024/02/13 00:09:30;;;;;;;19.87;13.47;;;5.50;99.90;;;;;;4967892;28;20233;-75
2024/02/13 00:11:57;;;;;;;18.43;12.57;;;5.40;99.90;;;;;;4967558;28;20293;-75
2024/02/13 00:14:24;;;;;;;21.30;13.40;;;5.40;99.90;;;;;;4967748;28;20214;-74
2024/02/13 00:16:51;;;;;;;19.50;13.20;;;5.40;99.90;;;;;;4967484;28;20270;-75
2024/02/13 00:19:18;;;;;;;19.63;13.93;;;5.40;99.90;;;;;;4958002;28;20290;-75
2024/02/13 00:21:46;;;;;;;20.00;13.33;;;5.40;99.90;;;;;;4962081;28;20207;-75
2024/02/13 00:24:16;;;;;;;19.67;13.50;;;5.30;99.90;;;;;;4959433;28;20331;-75
2024/02/13 00:26:44;;;;;;;19.10;12.93;;;5.30;99.90;;;;;;4952147;28;20215;-75
2024/02/13 00:29:12;;;;;;;17.23;12.93;;;5.40;99.90;;;;;;4951736;28;20213;-75
2024/02/13 00:31:41;;;;;;;18.10;12.60;;;5.40;99.90;;;;;;4953596;28;20203;-75
2024/02/13 00:34:08;;;;;;;20.53;13.17;;;5.40;99.90;;;;;;4966450;28;20211;-75
2024/02/13 00:36:34;;;;;;;17.20;11.93;;;5.40;99.90;;;;;;4952092;28;20215;-76
2024/02/13 00:39:01;;;;;;;20.03;12.23;;;5.30;99.90;;;;;;4952062;28;20211;-75
2024/02/13 00:41:29;;;;;;;20.23;12.23;;;5.30;99.90;;;;;;4960303;28;20202;-74
2024/02/13 00:43:57;;;;;;;19.97;12.60;;;5.30;99.90;;;;;;4965456;28;20212;-74
2024/02/13 00:46:24;;;;;;;17.73;12.63;;;5.20;99.90;;;;;;4951560;28;20269;-75
2024/02/13 00:48:52;;;;;;;19.07;12.73;;;5.20;99.90;;;;;;4959333;28;20330;-74
2024/02/13 00:51:19;;;;;;;17.37;11.77;;;5.20;99.90;;;;;;4971023;28;20217;-74
2024/02/13 00:53:45;;;;;;;15.03;11.40;;;5.20;99.90;;;;;;4970465;28;20780;-75
2024/02/13 00:56:12;;;;;;;16.67;12.40;;;5.20;99.90;;;;;;4970686;28;20254;-75
2024/02/13 00:58:43;;;;;;;17.27;11.40;;;5.20;99.90;;;;;;4970643;28;20234;-73
2024/02/13 01:01:11;;;;;;;15.97;11.63;;;5.20;99.90;;;;;;4970733;28;20201;-74
2024/02/13 01:03:38;;;;;;;16.90;11.30;;;5.20;99.90;;;;;;4970828;28;20210;-74
2024/02/13 01:06:07;;;;;;;17.93;12.23;;;5.20;99.90;;;;;;4970150;28;20284;-74
2024/02/13 01:08:34;;;;;;;20.03;12.20;;;5.20;99.90;;;;;;4952415;28;20215;-74
2024/02/13 01:11:01;;;;;;;14.80;11.63;;;5.20;99.90;;;;;;4950570;28;20711;-73
2024/02/13 01:13:30;;;;;;;17.30;11.53;;;5.20;99.90;;;;;;4951049;28;20612;-76
2024/02/13 01:15:58;;;;;;;16.93;11.90;;;5.20;99.90;;;;;;4950894;28;20290;-73
2024/02/13 01:18:27;;;;;;;14.77;10.57;;;5.20;99.90;;;;;;4964585;28;20251;-73
2024/02/13 01:20:53;;;;;;;16.43;11.67;;;5.20;99.90;;;;;;4970194;28;20218;-74
2024/02/13 01:23:20;;;;;;;18.03;11.73;;;5.30;99.90;;;;;;4969825;28;20347;-73
2024/02/13 01:25:49;;;;;;;18.17;11.77;;;5.30;99.90;;;;;;4970122;28;20238;-73
2024/02/13 01:28:16;;;;;;;16.03;11.80;;;5.30;99.90;;;;;;4969195;28;20289;-74
2024/02/13 01:30:44;;;;;;;16.03;11.83;;;5.30;99.90;;;;;;4969434;28;20207;-73
2024/02/13 01:33:11;;;;;;;17.80;11.87;;;5.30;99.90;;;;;;4969718;28;20235;-73
2024/02/13 01:35:42;;;;;;;18.97;11.60;;;5.40;99.90;;;;;;4969811;28;20246;-73
2024/02/13 01:38:09;;;;;;;18.33;10.77;;;5.40;99.90;;;;;;4969053;28;20258;-74
2024/02/13 01:40:36;;;;;;;16.33;11.30;;;5.40;99.90;;;;;;4969861;28;20677;-75
2024/02/13 01:43:04;;;;;;;16.23;11.20;;;5.40;99.90;;;;;;4969401;28;20858;-74
2024/02/13 01:45:31;;;;;;;15.47;10.73;;;5.40;99.90;;;;;;4970027;28;20245;-75
2024/02/13 01:48:01;;;;;;;14.93;10.83;;;5.40;99.90;;;;;;4970177;28;20644;-75
2024/02/13 01:50:28;;;;;;;15.30;11.17;;;5.40;99.90;;;;;;4969817;28;20286;-74
2024/02/13 01:52:57;;;;;;;22.10;11.67;;;5.40;99.90;;;;;;4968326;28;20326;-75
2024/02/13 01:55:25;;;;;;;15.97;10.43;;;5.40;99.90;;;;;;4950505;28;20302;-75
2024/02/13 01:57:53;;;;;;;15.10;11.27;;;5.40;99.90;;;;;;4953337;28;20207;-74
2024/02/13 02:00:21;;;;;;;14.33;9.90;;;5.40;99.90;;;;;;4950582;28;20214;-75
2024/02/13 02:02:50;;;;;;;14.30;10.30;;;5.50;99.90;;;;;;4968051;28;20230;-74
2024/02/13 02:05:17;;;;;;;15.10;10.57;;;5.50;99.90;;;;;;4969751;28;20580;-75
2024/02/13 02:07:44;;;;;;;14.87;9.70;;;5.50;99.90;;;;;;4969202;28;20207;-74
2024/02/13 02:10:14;;;;;;;15.07;10.70;;;5.50;99.90;;;;;;4963839;28;20211;-75
2024/02/13 02:12:41;;;;;;;14.47;10.00;;;5.40;99.90;;;;;;4949722;28;20267;-74
2024/02/13 02:15:10;;;;;;;12.23;9.60;;;5.40;99.90;;;;;;4967370;28;20234;-74
2024/02/13 02:17:42;;;;;;;15.97;10.57;;;5.50;99.90;;;;;;4969294;28;20215;-74
2024/02/13 02:20:10;;;;;;;10.63;8.77;;;5.50;99.90;;;;;;4952743;28;20199;-74
2024/02/13 02:22:37;;;;;;;12.00;9.07;;;5.50;99.90;;;;;;4949239;28;20785;-74
2024/02/13 02:25:09;;;;;;;15.43;10.03;;;5.60;99.90;;;;;;4967729;28;20671;-74
2024/02/13 02:27:36;;;;;;;11.20;8.57;;;5.50;99.90;;;;;;4968417;28;20621;-74
2024/02/13 02:30:03;;;;;;;13.83;9.13;;;5.50;99.90;;;;;;4968429;28;20242;-74
2024/02/13 02:32:31;;;;;;;11.57;8.17;;;5.60;99.90;;;;;;4968855;28;20302;-74
2024/02/13 02:34:59;;;;;;;11.60;8.00;;;5.60;99.90;;;;;;4968528;28;20215;-73
2024/02/13 02:37:26;;;;;;;11.10;8.37;;;5.60;99.90;;;;;;4968729;28;20211;-74
2024/02/13 02:39:52;;;;;;;10.03;7.63;;;5.60;99.90;;;;;;4968155;28;20257;-74
2024/02/13 02:42:21;;;;;;;11.67;7.77;;;5.60;99.90;;;;;;4968261;28;20773;-74
2024/02/13 02:44:48;;;;;;;10.07;7.70;;;5.60;99.90;;;;;;4968823;28;20222;-74
2024/02/13 02:47:15;;;;;;;8.20;7.40;;;5.60;99.90;;;;;;4968251;28;20207;-73
2024/02/13 02:49:42;;;;;;;8.90;7.30;;;5.60;99.90;;;;;;4968016;28;20925;-74
2024/02/13 02:52:08;;;;;;;10.93;7.13;;;5.60;99.90;;;;;;4968188;28;20252;-73
2024/02/13 02:54:36;;;;;;;11.77;7.03;;;5.60;99.90;;;;;;4953629;28;20333;-74
2024/02/13 02:57:04;;;;;;;8.30;6.67;;;5.60;99.90;;;;;;4952787;28;20225;-74
2024/02/13 02:59:32;;;;;;;9.57;6.90;;;5.60;99.90;;;;;;4958428;28;20208;-74
2024/02/13 03:02:01;;;;;;;6.77;6.17;;;5.60;99.90;;;;;;4949025;28;20263;-73
2024/02/13 03:04:28;;;;;;;7.77;6.77;;;5.60;99.90;;;;;;4948988;28;20697;-74
2024/02/13 03:06:55;;;;;;;8.87;6.53;;;5.50;99.90;;;;;;4951424;28;20231;-74
2024/02/13 03:09:23;;;;;;;8.40;6.63;;;5.60;99.90;;;;;;4967614;28;20264;-74
2024/02/13 03:11:49;;;;;;;6.63;5.90;;;5.60;99.90;;;;;;4967983;28;20273;-73
2024/02/13 03:14:16;;;;;;;9.60;6.03;;;5.50;99.90;;;;;;4967983;28;20618;-74
2024/02/13 03:16:47;;;;;;;7.33;5.93;;;5.50;99.90;;;;;;4966363;28;20325;-74
2024/02/13 03:19:14;;;;;;;6.63;5.70;;;5.40;99.90;;;;;;4961769;28;20191;-74
2024/02/13 03:21:42;;;;;;;6.67;5.70;;;5.50;99.90;;;;;;4963831;28;20331;-75
2024/02/13 03:24:09;;;;;;;7.93;6.10;;;5.50;99.90;;;;;;4961939;28;20234;-74
2024/02/13 03:26:36;;;;;;;6.90;5.77;;;5.50;99.90;;;;;;4958279;28;20264;-74
2024/02/13 03:29:03;;;;;;;7.83;4.90;;;5.40;99.90;;;;;;4957409;28;20555;-74
2024/02/13 03:31:30;;;;;;;7.23;4.87;;;5.30;99.90;;;;;;4966471;28;20242;-74
2024/02/13 03:33:58;;;;;;;5.97;4.93;;;5.30;99.90;;;;;;4966127;28;20328;-74
2024/02/13 03:36:25;;;;;;;6.63;4.90;;;5.30;99.90;;;;;;4965979;28;20732;-74
2024/02/13 03:38:53;;;;;;;5.63;5.03;;;5.30;99.90;;;;;;4966027;28;20779;-74
2024/02/13 03:41:20;;;;;;;6.83;4.80;;;5.20;99.90;;;;;;4966490;28;20589;-74
2024/02/13 03:43:49;;;;;;;7.43;4.67;;;5.20;99.90;;;;;;4966028;28;20206;-74
2024/02/13 03:46:16;;;;;;;5.50;5.00;;;5.20;99.90;;;;;;4966260;28;20219;-74
2024/02/13 03:48:43;;;;;;;5.50;4.13;;;5.20;99.90;;;;;;4963423;28;20289;-74
2024/02/13 03:51:11;;;;;;;5.13;4.03;;;5.20;99.90;;;;;;4948657;28;20247;-74
2024/02/13 03:53:38;;;;;;;4.10;3.70;;;5.10;99.90;;;;;;4959459;28;20329;-74
2024/02/13 03:56:07;;;;;;;6.03;4.33;;;5.10;99.90;;;;;;4971551;28;20231;-74
2024/02/13 03:58:34;;;;;;;6.50;3.50;;;5.10;99.90;;;;;;4959882;28;20262;-74
2024/02/13 04:01:01;;;;;;;4.80;3.67;;;5.20;99.90;;;;;;4951647;28;20215;-74
2024/02/13 04:03:28;;;;;;;5.33;3.50;;;5.20;99.90;;;;;;4952335;28;20234;-74
2024/02/13 04:05:57;;;;;;;3.77;3.10;;;5.10;99.90;;;;;;4952516;28;20290;-74
2024/02/13 04:08:26;;;;;;;4.10;3.20;;;5.20;99.90;;;;;;4952032;28;20603;-74
2024/02/13 04:10:53;;;;;;;3.80;2.90;;;5.10;99.90;;;;;;4951874;28;20210;-74
2024/02/13 04:13:20;;;;;;;3.17;2.93;;;5.20;99.90;;;;;;4951923;28;20322;-74
2024/02/13 04:15:47;;;;;;;3.70;3.00;;;5.20;99.90;;;;;;4952163;28;20301;-74
2024/02/13 04:18:16;;;;;;;4.00;2.73;;;5.10;99.90;;;;;;4959653;28;20221;-74
2024/02/13 04:20:43;;;;;;;5.80;2.80;;;5.20;99.90;;;;;;4971251;28;20211;-75
2024/02/13 04:23:10;;;;;;;3.73;2.83;;;5.20;99.90;;;;;;4967104;28;20330;-74
2024/02/13 04:25:38;;;;;;;3.03;2.83;;;5.20;99.90;;;;;;4951770;29;20738;-74
2024/02/13 04:28:05;;;;;;;3.27;2.97;;;5.20;99.90;;;;;;4970357;28;20242;-74
2024/02/13 04:30:32;;;;;;;4.70;2.87;;;5.20;99.90;;;;;;4971018;28;20750;-74
2024/02/13 04:32:59;;;;;;;3.20;2.90;;;5.20;99.90;;;;;;4971031;28;20246;-74
2024/02/13 04:35:26;;;;;;;3.13;2.83;;;5.20;99.90;;;;;;4970992;28;20634;-74
2024/02/13 04:37:53;;;;;;;2.90;2.60;;;5.20;99.90;;;;;;4970680;28;20211;-74
2024/02/13 04:40:20;;;;;;;3.37;2.87;;;5.20;99.90;;;;;;4970975;28;20298;-74
2024/02/13 04:42:49;;;;;;;3.23;2.70;;;5.20;99.90;;;;;;4970947;28;20311;-74
2024/02/13 04:45:16;;;;;;;5.13;2.73;;;5.20;99.90;;;;;;4971249;28;20219;-74
2024/02/13 04:47:46;;;;;;;4.60;2.60;;;5.20;99.90;;;;;;4970774;28;20660;-73
2024/02/13 04:50:13;;;;;;;4.10;2.67;;;5.10;99.90;;;;;;4971104;28;20199;-74
2024/02/13 04:52:40;;;;;;;4.40;2.90;;;5.10;99.90;;;;;;4970893;28;20775;-74
2024/02/13 04:55:08;;;;;;;3.00;2.63;;;5.10;99.90;;;;;;4970571;28;20309;-74
2024/02/13 04:57:35;;;;;;;3.13;2.90;;;5.10;99.90;;;;;;4970647;28;20227;-74
2024/02/13 05:00:13;;;;;;;3.10;2.57;;;5.10;99.90;;;;;;4970615;28;20628;-74
2024/02/13 05:02:46;;;;;;;3.27;2.97;;;5.20;99.90;;;;;;4970534;28;20615;-74
2024/02/13 05:07:57;;;;;;;6.23;3.37;;;5.00;99.90;;;;;;4970314;28;20525;-73
2024/02/13 05:10:24;;;;;;;4.00;2.90;;;5.00;99.90;;;;;;4970658;28;20509;-74
2024/02/13 05:12:53;;;;;;;3.10;2.90;;;5.00;99.90;;;;;;4970155;28;20329;-75
2024/02/13 05:15:21;;;;;;;3.63;3.30;;;5.00;99.90;;;;;;4970264;28;20266;-73
2024/02/13 05:17:49;;;;;;;3.73;3.40;;;5.00;99.90;;;;;;4970184;28;20640;-73
2024/02/13 05:20:16;;;;;;;3.70;3.30;;;5.00;99.90;;;;;;4970564;28;20221;-73
2024/02/13 05:22:43;;;;;;;3.93;3.43;;;4.90;99.90;;;;;;4969944;28;20262;-73
2024/02/13 05:25:13;;;;;;;4.03;3.73;;;4.90;99.90;;;;;;4969861;28;20616;-73
2024/02/13 05:27:40;;;;;;;3.80;3.50;;;4.90;99.90;;;;;;4969980;28;20334;-73
2024/02/13 05:30:09;;;;;;;4.77;3.50;;;4.80;99.90;;;;;;4970195;28;20234;-73
2024/02/13 05:32:38;;;;;;;4.90;4.27;;;4.80;99.90;;;;;;4969915;28;20222;-73
2024/02/13 05:35:07;;;;;;;4.80;4.43;;;4.80;99.90;;;;;;4969941;28;20609;-73
2024/02/13 05:37:37;;;;;;;5.47;4.90;;;4.80;99.90;;;;;;4969789;28;20700;-73
2024/02/13 05:40:05;;;;;;;5.57;4.60;;;4.90;99.90;;;;;;4970029;28;20234;-73
2024/02/13 05:42:32;;;;;;;7.67;5.30;;;5.00;99.90;;;;;;4969827;28;20634;-74
2024/02/13 05:44:58;;;;;;;5.40;4.90;;;5.00;99.90;;;;;;4969811;28;20290;-74
2024/02/13 05:47:31;;;;;;;4.50;4.07;;;5.00;99.90;;;;;;4969733;28;20207;-74
2024/02/13 05:50:00;;;;;;;4.70;4.27;;;5.00;99.90;;;;;;4951357;28;20211;-74
2024/02/13 05:52:27;;;;;;;5.10;4.70;;;5.10;99.90;;;;;;4950314;28;20226;-73
2024/02/13 05:54:55;;;;;;;5.90;5.17;;;5.10;99.90;;;;;;4967097;28;20641;-73
2024/02/13 05:57:22;;;;;;;5.53;4.97;;;5.10;99.90;;;;;;4969258;28;20231;-73
2024/02/13 05:59:49;;;;;;;6.40;5.80;;;5.20;99.90;;;;;;4969511;28;20293;-73
2024/02/13 06:02:17;;;;;;;6.73;5.47;;;5.20;99.90;;;;;;4969659;28;20579;-73
2024/02/13 06:04:44;;;;;;;7.60;5.67;;;5.10;99.90;;;;;;4969007;28;20211;-73
2024/02/13 06:07:13;;;;;;;6.83;5.30;;;5.10;99.90;;;;;;4968946;28;20382;-74
2024/02/13 06:09:40;;;;;;;6.20;5.60;;;5.10;99.90;;;;;;4969392;28;20207;-74
2024/02/13 06:12:08;;;;;;;7.03;6.10;;;5.10;99.90;;;;;;4968517;28;20745;-74
2024/02/13 06:14:34;;;;;;;8.20;5.83;;;5.10;99.90;;;;;;4968923;28;20342;-74
2024/02/13 06:17:03;;;;;;;7.93;4.93;;;5.10;99.90;;;;;;4967730;28;20749;-74
2024/02/13 06:19:30;;;;;;;7.73;5.50;;;5.10;99.90;;;;;;4969008;28;20211;-74
2024/02/13 06:21:56;;;;;;;5.60;5.00;;;5.10;99.90;;;;;;4968496;28;20242;-74
2024/02/13 06:24:25;;;;;;;6.73;6.13;;;5.10;99.90;;;;;;4969040;28;20305;-74
2024/02/13 06:26:52;;;;;;;7.23;5.40;;;5.00;99.90;;;;;;4969024;28;20206;-74
2024/02/13 06:29:18;;;;;;;7.60;5.23;;;5.00;99.90;;;;;;4968725;28;20246;-74
2024/02/13 06:31:45;;;;;;;7.70;5.60;;;5.00;99.90;;;;;;4968764;28;20209;-74
2024/02/13 06:34:15;;;;;;;6.83;5.93;;;5.00;99.90;;;;;;4968786;28;20234;-74
2024/02/13 06:36:42;;;;;;;5.17;4.73;;;5.10;99.90;;;;;;4968806;28;20199;-74
2024/02/13 06:39:12;;;;;;;5.37;4.87;;;5.10;99.90;;;;;;4968627;28;20301;-74
2024/02/13 06:41:40;;;;;;;5.07;4.37;;;5.10;99.90;;;;;;4968486;28;20217;-74
2024/02/13 06:44:07;;;;;;;5.30;4.80;;;5.20;99.90;;;;;;4968402;28;20305;-74
2024/02/13 06:46:34;;;;;;;5.60;4.60;;;5.20;99.90;;;;;;4968687;28;20210;-74
2024/02/13 06:49:01;;;;;;;5.57;4.97;;;5.20;99.90;;;;;;4968665;28;20210;-74
2024/02/13 06:51:28;;;;;;;5.27;4.70;;;5.20;99.90;;;;;;4968563;28;20213;-74
2024/02/13 06:54:01;;;;;;;10.63;4.93;;;5.30;99.90;;;;;;4958939;28;20267;-74
2024/02/13 06:56:28;;;;;;;6.10;5.07;;;5.30;99.90;;;;;;4949306;28;20598;-74
2024/02/13 06:58:57;;;;;;;7.77;5.07;;;5.20;99.90;;;;;;4948983;29;20686;-74
2024/02/13 07:01:24;;;;;;;7.13;5.43;;;5.10;99.90;;;;;;4949215;29;20767;-74
2024/02/13 07:03:51;;;;;;;5.70;5.10;;;5.00;99.90;;;;;;4948791;28;20631;-74
2024/02/13 07:06:18;;;;;;;6.03;5.43;;;5.00;99.90;;;;;;4948941;29;20756;-74
2024/02/13 07:08:45;;;;;;;6.40;5.87;;;5.00;99.90;;;;;;4965567;28;20233;-74
2024/02/13 07:11:15;;;;;;;6.13;5.53;;;5.00;99.90;;;;;;4968001;28;20304;-74
2024/02/13 07:13:42;;;;;;;8.37;5.57;;;5.10;99.90;;;;;;4968385;28;20247;-74
2024/02/13 07:16:10;;;;;;;7.20;5.40;;;5.10;99.90;;;;;;4967577;28;20697;-74
2024/02/13 07:18:37;;;;;;;6.10;5.50;;;5.20;99.90;;;;;;4967841;28;20808;-74
2024/02/13 07:21:06;;;;;;;6.40;5.70;;;5.20;99.90;;;;;;4968078;28;20217;-74
2024/02/13 07:23:33;;;;;;;7.10;5.90;;;5.20;99.90;;;;;;4967653;28;20246;-74
2024/02/13 07:26:00;;;;;;;6.63;5.90;;;5.30;99.90;;;;;;4967450;28;20836;-74
2024/02/13 07:28:28;;;;;;;6.00;5.43;;;5.30;99.90;;;;;;4973620;28;20250;-74
2024/02/13 07:30:55;;;;;;;7.00;5.87;;;5.30;99.90;;;;;;4974170;28;20217;-74
2024/02/13 07:33:23;;;;;;;8.50;5.90;;;5.20;99.90;;;;;;4976849;28;21133;-74
2024/02/13 07:35:50;;;;;;;8.17;6.03;;;5.30;99.90;;;;;;4993499;28;20280;-74
2024/02/13 07:38:17;;;;;;;10.57;6.23;;;5.30;99.90;;;;;;4993486;28;20759;-73
2024/02/13 07:40:44;;;;;;;6.90;6.00;;;5.30;99.90;;;;;;4994010;28;20233;-74
2024/02/13 07:43:13;;;;;;;10.60;7.07;;;5.20;99.90;;;;;;4993704;28;20210;-74
2024/02/13 07:45:40;;;;;;;8.93;6.37;;;5.10;99.90;;;;;;4993775;28;20237;-74
2024/02/13 07:48:11;;;;;;;8.07;6.10;;;5.10;99.90;;;;;;4993375;28;20355;-74
2024/02/13 07:50:40;;;;;;;7.87;6.70;;;5.20;99.90;;;;;;4994247;28;20615;-74
2024/02/13 07:53:10;;;;;;;8.93;7.23;;;5.20;99.90;;;;;;4991135;28;20297;-74
2024/02/13 07:55:37;;;;;;;9.33;7.57;;;5.20;99.90;;;;;;4974642;28;20234;-74
2024/02/13 07:58:04;;;;;;;10.33;7.70;;;5.30;99.90;;;;;;4974206;28;20242;-74
2024/02/13 08:00:33;;;;;;;11.97;8.30;;;5.20;99.90;;;;;;4974504;28;20261;-74
2024/02/13 08:03:01;;;;;;;9.27;7.60;;;5.20;99.90;;;;;;4974010;28;20273;-74
2024/02/13 08:05:33;;;;;;;9.33;7.17;;;5.30;99.90;;;;;;4974182;28;20202;-74
2024/02/13 08:08:02;;;;;;;10.73;7.53;;;5.30;99.90;;;;;;4974124;28;20265;-74
2024/02/13 08:10:29;;;;;;;8.80;7.63;;;5.30;99.90;;;;;;4974351;28;20207;-74
2024/02/13 08:12:57;;;;;;;9.47;8.07;;;5.30;99.90;;;;;;4974062;28;20205;-74
2024/02/13 08:15:24;;;;;;;9.80;7.77;;;5.40;99.90;;;;;;4974165;28;20241;-74
2024/02/13 08:17:51;;;;;;;8.13;7.33;;;5.40;99.90;;;;;;4974333;28;20301;-74
2024/02/13 08:20:18;;;;;;;8.97;7.73;;;5.40;99.90;;;;;;4974291;28;20306;-74
2024/02/13 08:22:45;;;;;;;8.33;7.37;;;5.50;99.90;;;;;;4973483;28;20234;-74
2024/02/13 08:25:14;;;;;;;12.20;7.37;;;5.60;99.90;;;;;;4954497;28;20207;-74
2024/02/13 08:27:41;;;;;;;9.67;7.57;;;5.60;99.90;;;;;;4954908;28;20298;-73
2024/02/13 08:30:10;;;;;;;8.27;6.60;;;5.60;99.90;;;;;;4954172;28;20303;-74
2024/02/13 08:32:39;;;;;;;8.67;7.13;;;5.60;99.90;;;;;;4955092;28;20215;-74
2024/02/13 08:35:07;;;;;;;11.00;7.87;;;5.60;99.90;;;;;;4954700;28;20270;-74
2024/02/13 08:37:34;;;;;;;8.83;7.47;;;5.70;99.90;;;;;;4954845;28;20614;-74
2024/02/13 08:40:01;;;;;;;9.90;7.00;;;5.70;99.90;;;;;;4950433;28;20298;-74
2024/02/13 08:42:34;;;;;;;8.40;7.53;;;5.70;99.90;;;;;;4951746;28;20239;-74
2024/02/13 08:45:01;;;;;;;10.10;6.90;;;5.80;99.90;;;;;;4951585;29;20313;-74
2024/02/13 08:47:28;;;;;;;8.20;6.77;;;5.80;99.90;;;;;;4951361;29;20219;-74
2024/02/13 08:49:54;;;;;;;9.43;6.60;;;5.80;99.90;;;;;;4951300;28;20552;-74
2024/02/13 08:52:22;;;;;;;8.10;7.30;;;5.90;99.90;;;;;;4950969;29;20684;-74
2024/02/13 08:54:49;;;;;;;11.73;7.23;;;5.90;99.90;;;;;;4967392;28;20802;-74
2024/02/13 08:57:18;;;;;;;7.97;6.50;;;5.90;99.90;;;;;;4970676;28;20595;-74
2024/02/13 08:59:46;;;;;;;7.63;6.97;;;6.00;99.90;;;;;;4970028;28;20303;-74
2024/02/13 09:02:13;;;;;;;7.67;6.87;;;6.00;99.90;;;;;;4970208;28;20599;-73
2024/02/13 09:04:40;;;;;;;7.97;7.00;;;6.00;99.90;;;;;;4970125;28;20658;-74
2024/02/13 09:07:07;;;;;;;7.93;6.43;;;6.10;99.90;;;;;;4969692;28;20242;-74
2024/02/13 09:09:34;;;;;;;6.53;5.87;;;6.10;99.90;;;;;;4970074;28;20737;-74
2024/02/13 09:12:02;;;;;;;7.67;6.87;;;6.20;99.90;;;;;;4970343;28;20242;-74
2024/02/13 09:14:33;;;;;;;8.47;6.50;;;6.20;99.90;;;;;;4969897;28;20211;-74
2024/02/13 09:17:02;;;;;;;9.87;6.90;;;6.20;99.90;;;;;;4970229;28;20210;-74
2024/02/13 09:19:28;;;;;;;7.83;6.17;;;6.30;99.90;;;;;;4970226;28;20641;-74
2024/02/13 09:21:56;;;;;;;6.67;5.60;;;6.40;99.90;;;;;;4969753;28;20206;-74
2024/02/13 09:24:25;;;;;;;8.23;6.43;;;6.50;99.90;;;;;;4969961;28;20582;-74
2024/02/13 09:26:52;;;;;;;9.13;6.00;;;6.50;99.90;;;;;;4969910;28;20281;-74
2024/02/13 09:29:19;;;;;;;9.83;6.00;;;6.50;99.90;;;;;;4970251;28;20211;-74
2024/02/13 09:31:46;;;;;;;7.20;5.67;;;6.60;99.90;;;;;;4969908;28;20289;-74
2024/02/13 09:34:14;;;;;;;6.37;5.50;;;6.60;99.90;;;;;;4970015;28;20266;-74
2024/02/13 09:36:43;;;;;;;5.93;5.33;;;6.60;99.90;;;;;;4969622;28;20235;-74
2024/02/13 09:39:12;;;;;;;5.97;5.37;;;6.60;99.90;;;;;;4969790;28;20661;-74
2024/02/13 09:41:40;;;;;;;6.70;5.30;;;6.60;99.90;;;;;;4969826;28;20214;-74
2024/02/13 09:44:07;;;;;;;5.60;5.20;;;6.70;99.90;;;;;;4969616;28;20635;-74
2024/02/13 09:46:37;;;;;;;5.20;4.70;;;6.70;99.90;;;;;;4969524;28;20329;-74
2024/02/13 09:49:05;;;;;;;5.97;5.00;;;6.80;99.90;;;;;;4969957;28;20230;-74
2024/02/13 09:51:37;;;;;;;5.90;4.53;;;6.80;99.90;;;;;;4969101;28;20577;-74
2024/02/13 09:54:06;;;;;;;5.93;4.80;;;6.90;99.90;;;;;;4958782;28;20237;-74
2024/02/13 09:56:33;;;;;;;4.93;4.50;;;6.90;99.90;;;;;;4959026;28;20273;-74
2024/02/13 09:59:01;;;;;;;9.80;4.23;;;6.90;99.90;;;;;;4968923;28;20757;-74
2024/02/13 10:01:29;;;;;;;8.60;4.00;;;6.90;99.90;;;;;;4969282;28;20273;-74
2024/02/13 10:03:56;;;;;;;5.33;4.17;;;7.00;99.90;;;;;;4968810;28;20206;-74
2024/02/13 10:06:24;;;;;;;6.40;4.20;;;7.00;99.90;;;;;;4969139;28;20215;-74
2024/02/13 10:08:53;;;;;;;7.00;4.07;;;7.00;99.90;;;;;;4969233;28;20229;-74
2024/02/13 10:11:30;;;;;;;4.97;3.83;;;7.00;99.90;;;;;;4969087;28;20237;-74
2024/02/13 10:13:57;;;;;;;6.83;4.00;;;7.00;99.90;;;;;;4968702;28;20317;-74
2024/02/13 10:16:25;;;;;;;4.90;4.40;;;7.10;99.90;;;;;;4969097;28;20269;-74
2024/02/13 10:18:54;;;;;;;4.03;3.67;;;7.10;99.90;;;;;;4968680;28;20246;-74
2024/02/13 10:21:22;;;;;;;6.43;3.70;;;7.10;99.90;;;;;;4968716;28;20812;-74
2024/02/13 10:23:50;;;;;;;4.57;3.37;;;7.10;99.90;;;;;;4960035;28;20247;-74
2024/02/13 10:26:18;;;;;;;4.90;3.70;;;7.20;99.90;;;;;;4949259;29;20666;-74
2024/02/13 10:28:54;;;;;;;9.03;3.70;;;7.20;99.90;;;;;;4949485;29;20207;-74
2024/02/13 10:31:24;;;;;;;4.37;3.50;;;7.10;99.90;;;;;;4949662;29;20293;-74
2024/02/13 10:33:51;;;;;;;3.97;3.20;;;7.20;99.90;;;;;;4949373;29;20670;-74
2024/02/13 10:36:18;;;;;;;5.00;3.00;;;7.20;99.90;;;;;;4948977;28;20702;-74
2024/02/13 10:38:49;;;;;;;4.10;3.20;;;7.30;99.90;;;;;;4949173;28;20211;-74
2024/02/13 10:41:23;;;;;;;5.07;3.10;;;7.30;99.90;;;;;;4949633;29;20231;-74
2024/02/13 10:43:53;;;;;;;3.33;3.03;;;7.40;99.90;;;;;;4949399;28;20199;-74
2024/02/13 10:46:23;;;;;;;4.00;2.70;;;7.50;99.90;;;;;;4949432;29;20234;-74
2024/02/13 10:48:57;;;;;;;3.77;2.77;;;7.50;99.90;;;;;;4949155;29;20207;-74
2024/02/13 10:51:26;;;;;;;3.13;2.83;;;7.60;99.90;;;;;;4952353;28;20217;-74
2024/02/13 10:53:57;;;;;;;3.70;2.90;;;7.70;99.90;;;;;;4959425;28;20242;-74
2024/02/13 10:56:25;;;;;;;3.37;2.43;;;7.70;99.90;;;;;;4962922;28;20332;-74
2024/02/13 10:58:53;;;;;;;2.60;2.40;;;7.90;99.90;;;;;;4968125;28;20211;-74
2024/02/13 11:01:21;;;;;;;4.10;2.00;;;7.90;99.90;;;;;;4967930;28;20210;-74
2024/02/13 11:03:50;;;;;;;4.43;1.90;;;7.90;99.90;;;;;;4967901;28;20298;-74
2024/02/13 11:06:17;;;;;;;3.97;2.33;;;8.00;99.90;;;;;;4968136;28;20238;-74
2024/02/13 11:08:44;;;;;;;2.03;1.93;;;8.10;99.90;;;;;;4968755;28;20207;-74
2024/02/13 11:11:15;;;;;;;4.13;2.50;;;8.10;99.90;;;;;;4968135;28;20210;-74
2024/02/13 11:13:44;;;;;;;4.10;2.10;;;8.20;99.90;;;;;;4968299;28;20297;-75
2024/02/13 11:16:13;;;;;;;2.63;1.83;;;8.30;99.90;;;;;;4968109;28;20278;-74
2024/02/13 11:18:47;;;;;;;2.83;1.90;;;8.60;99.90;;;;;;4968465;28;20242;-74
2024/02/13 11:21:20;;;;;;;1.97;1.67;;;8.70;99.90;;;;;;4967585;28;20238;-74
2024/02/13 11:23:54;;;;;;;2.10;1.70;;;8.90;99.90;;;;;;4967826;28;20240;-75
2024/02/13 11:26:21;;;;;;;1.97;1.73;;;9.00;99.90;;;;;;4967948;28;20210;-75
2024/02/13 11:28:49;;;;;;;3.90;2.30;;;9.10;99.90;;;;;;4968328;28;20207;-75
2024/02/13 11:31:18;;;;;;;2.47;1.73;;;9.30;99.90;;;;;;4967750;28;20269;-75
2024/02/13 11:34:05;;;;;;;2.87;1.50;;;9.40;99.90;;;;;;4968222;28;20222;-75
2024/02/13 11:36:34;;;;;;;4.27;1.60;;;9.30;99.90;;;;;;4967488;28;20245;-74
2024/02/13 11:39:04;;;;;;;2.43;1.37;;;9.30;99.90;;;;;;4968004;28;20234;-75
2024/02/13 11:41:33;;;;;;;1.97;1.50;;;9.00;99.90;;;;;;4968173;28;20250;-74
2024/02/13 11:44:08;;;;;;;2.37;1.50;;;9.20;99.90;;;;;;4967718;28;20214;-75
2024/02/13 11:46:38;;;;;;;2.27;1.40;;;9.20;99.90;;;;;;4967737;28;20823;-74
2024/02/13 11:49:09;;;;;;;2.57;1.70;;;9.20;99.90;;;;;;4967365;28;20737;-75
2024/02/13 11:51:37;;;;;;;4.83;1.30;;;9.40;99.90;;;;;;4967601;28;20662;-75
2024/02/13 11:54:05;;;;;;;3.13;1.40;;;9.50;99.90;;;;;;4957530;28;20242;-74
2024/02/13 11:56:32;;;;;;;1.83;1.33;;;9.60;99.90;;;;;;4954605;28;20249;-75
2024/02/13 11:59:05;;;;;;;2.00;1.50;;;9.60;99.90;;;;;;4967580;28;20696;-74
2024/02/13 12:01:36;;;;;;;3.03;1.80;;;9.40;99.90;;;;;;4968217;28;20195;-74
2024/02/13 12:04:03;;;;;;;1.47;1.23;;;9.40;99.90;;;;;;4967413;28;20685;-74
2024/02/13 12:06:31;;;;;;;3.97;2.10;;;9.20;99.90;;;;;;4967833;28;20294;-75
2024/02/13 12:08:59;;;;;;;2.80;2.00;;;9.10;99.90;;;;;;4967657;28;20206;-74
2024/02/13 12:11:29;;;;;;;2.67;1.60;;;9.20;99.90;;;;;;4968017;28;20408;-74
2024/02/13 12:13:56;;;;;;;1.63;1.33;;;9.10;99.90;;;;;;4967994;28;20989;-75
2024/02/13 12:16:23;;;;;;;1.20;1.20;;;9.30;99.90;;;;;;4971503;28;20748;-74
2024/02/13 12:18:52;;;;;;;3.43;1.60;;;9.50;99.90;;;;;;4971272;28;20219;-75
2024/02/13 12:21:19;;;;;;;2.53;1.43;;;9.60;99.90;;;;;;4971028;28;20218;-75
2024/02/13 12:23:50;;;;;;;4.53;1.60;;;9.80;99.90;;;;;;4970986;28;20365;-74
2024/02/13 12:26:18;;;;;;;2.13;1.57;;;10.10;99.90;;;;;;4971404;28;20199;-74
2024/02/13 12:28:54;;;;;;;3.00;1.60;;;10.20;99.90;;;;;;4971149;28;20314;-75
2024/02/13 12:31:22;;;;;;;2.83;1.53;;;10.30;99.90;;;;;;4970860;28;20209;-75
2024/02/13 12:34:00;;;;;;;3.40;1.67;;;10.50;99.90;;;;;;4970866;28;20211;-74
2024/02/13 12:36:27;;;;;;;2.57;1.37;;;10.60;99.90;;;;;;4970939;28;20241;-74
2024/02/13 12:39:08;;;;;;;3.77;1.40;;;10.80;99.90;;;;;;4970841;28;20299;-74
2024/02/13 12:41:35;;;;;;;1.63;1.40;;;10.80;99.90;;;;;;4970964;28;20304;-74
2024/02/13 12:44:02;;;;;;;1.83;1.30;;;10.50;99.90;;;;;;4970950;28;20230;-74
2024/02/13 12:46:34;;;;;;;3.47;1.60;;;10.50;99.90;;;;;;4970594;28;20225;-74
2024/02/13 12:49:06;;;;;;;3.87;1.57;;;10.20;99.90;;;;;;4970507;28;20210;-74
2024/02/13 12:51:33;;;;;;;3.00;1.40;;;10.20;99.90;;;;;;4970328;28;20282;-74
2024/02/13 12:54:04;;;;;;;5.10;1.83;;;10.40;99.90;;;;;;4970383;28;20242;-74
2024/02/13 12:56:31;;;;;;;6.27;1.90;;;10.50;99.90;;;;;;4970540;28;20244;-75
2024/02/13 12:58:58;;;;;;;5.97;2.30;;;10.60;99.90;;;;;;4970545;28;20242;-75
2024/02/13 13:01:26;;;;;;;3.87;1.80;;;10.80;99.90;;;;;;4970513;28;20327;-74